sensor_id;sensor_type;location;lat;lon;timestamp;pressure;altitude;pressure_sealevel;temperature;humidity
71666;BME280;59503;53.486;10.196;2023-04-04T00:01:03;103267.94;;;-2.15;100.00
71666;BME280;59503;53.486;10.196;2023-04-04T00:03:28;103270.38;;;-2.14;100.00
71666;BME280;59503;53.486;10.196;2023-04-04T00:05:54;103268.31;;;-2.12;100.00
71666;BME280;59503;53.486;10.196;2023-04-04T00:08:20;103265.25;;;-2.15;100.00
71666;BME280;59503;53.486;10.196;2023-04-04T00:10:46;103265.88;;;-2.20;100.00
71666;BME280;59503;53.486;10.196;2023-04-04T00:13:12;103266.31;;;-2.23;100.00
71666;BME280;59503;53.486;10.196;2023-04-04T00:15:37;103253.16;;;-2.18;100.00
71666;BME280;59503;53.486;10.196;2023-04-04T00:18:03;103254.00;;;-2.17;100.00
71666;BME280;59503;53.486;10.196;2023-04-04T00:20:29;103254.81;;;-2.17;100.00
71666;BME280;59503;53.486;10.196;2023-04-04T00:22:55;103255.56;;;-2.10;100.00
71666;BME280;59503;53.486;10.196;2023-04-04T00:25:22;103248.19;;;-2.08;100.00
71666;BME280;59503;53.486;10.196;2023-04-04T00:27:47;103248.19;;;-2.08;100.00
71666;BME280;59503;53.486;10.196;2023-04-04T00:30:13;103246.56;;;-2.09;100.00
71666;BME280;59503;53.486;10.196;2023-04-04T00:32:38;103244.50;;;-2.07;100.00
71666;BME280;59503;53.486;10.196;2023-04-04T00:35:04;103235.91;;;-2.09;100.00
71666;BME280;59503;53.486;10.196;2023-04-04T00:37:30;103246.78;;;-2.10;100.00
71666;BME280;59503;53.486;10.196;2023-04-04T00:39:55;103233.63;;;-2.05;100.00
71666;BME280;59503;53.486;10.196;2023-04-04T00:42:21;103237.53;;;-2.08;100.00
71666;BME280;59503;53.486;10.196;2023-04-04T00:44:47;103231.59;;;-2.10;100.00
71666;BME280;59503;53.486;10.196;2023-04-04T00:47:12;103232.19;;;-2.08;100.00
71666;BME280;59503;53.486;10.196;2023-04-04T00:49:38;103231.75;;;-2.05;100.00
71666;BME280;59503;53.486;10.196;2023-04-04T00:52:03;103237.91;;;-2.04;100.00
71666;BME280;59503;53.486;10.196;2023-04-04T00:54:31;103225.63;;;-2.05;100.00
71666;BME280;59503;53.486;10.196;2023-04-04T00:56:57;103234.41;;;-2.05;100.00
71666;BME280;59503;53.486;10.196;2023-04-04T00:59:25;103220.31;;;-2.05;100.00
71666;BME280;59503;53.486;10.196;2023-04-04T01:01:52;103221.38;;;-2.13;100.00
71666;BME280;59503;53.486;10.196;2023-04-04T01:04:18;103225.31;;;-2.15;100.00
71666;BME280;59503;53.486;10.196;2023-04-04T01:06:44;103226.97;;;-2.21;100.00
71666;BME280;59503;53.486;10.196;2023-04-04T01:09:11;103227.03;;;-2.27;100.00
71666;BME280;59503;53.486;10.196;2023-04-04T01:11:37;103222.75;;;-2.35;100.00
71666;BME280;59503;53.486;10.196;2023-04-04T01:14:03;103223.03;;;-2.43;100.00
71666;BME280;59503;53.486;10.196;2023-04-04T01:16:28;103222.63;;;-2.46;100.00
71666;BME280;59503;53.486;10.196;2023-04-04T01:18:55;103221.00;;;-2.47;100.00
71666;BME280;59503;53.486;10.196;2023-04-04T01:21:21;103218.78;;;-2.50;100.00
71666;BME280;59503;53.486;10.196;2023-04-04T01:24:00;103217.34;;;-2.53;100.00
71666;BME280;59503;53.486;10.196;2023-04-04T01:26:27;103219.63;;;-2.57;100.00
71666;BME280;59503;53.486;10.196;2023-04-04T01:28:54;103222.31;;;-2.63;100.00
71666;BME280;59503;53.486;10.196;2023-04-04T01:31:45;103219.41;;;-2.55;100.00
71666;BME280;59503;53.486;10.196;2023-04-04T01:34:20;103212.06;;;-2.60;100.00
71666;BME280;59503;53.486;10.196;2023-04-04T01:39:26;103193.31;;;-2.71;100.00
71666;BME280;59503;53.486;10.196;2023-04-04T01:41:53;103192.69;;;-2.73;100.00
71666;BME280;59503;53.486;10.196;2023-04-04T01:44:20;103191.66;;;-2.66;100.00
71666;BME280;59503;53.486;10.196;2023-04-04T01:46:46;103186.91;;;-2.64;100.00
71666;BME280;59503;53.486;10.196;2023-04-04T01:49:11;103189.16;;;-2.61;100.00
71666;BME280;59503;53.486;10.196;2023-04-04T01:51:37;103192.00;;;-2.62;100.00
71666;BME280;59503;53.486;10.196;2023-04-04T01:54:03;103195.09;;;-2.65;100.00
71666;BME280;59503;53.486;10.196;2023-04-04T01:56:29;103181.44;;;-2.75;100.00
71666;BME280;59503;53.486;10.196;2023-04-04T01:58:54;103196.63;;;-2.76;100.00
71666;BME280;59503;53.486;10.196;2023-04-04T02:01:20;103188.03;;;-2.78;100.00
71666;BME280;59503;53.486;10.196;2023-04-04T02:03:45;103185.16;;;-2.76;100.00
71666;BME280;59503;53.486;10.196;2023-04-04T02:06:11;103192.09;;;-2.75;100.00
71666;BME280;59503;53.486;10.196;2023-04-04T02:08:37;103183.88;;;-2.74;100.00
71666;BME280;59503;53.486;10.196;2023-04-04T02:11:03;103171.41;;;-2.73;100.00
71666;BME280;59503;53.486;10.196;2023-04-04T02:13:29;103169.75;;;-2.68;100.00
71666;BME280;59503;53.486;10.196;2023-04-04T02:15:54;103166.44;;;-2.63;100.00
71666;BME280;59503;53.486;10.196;2023-04-04T02:18:20;103159.47;;;-2.64;100.00
71666;BME280;59503;53.486;10.196;2023-04-04T02:20:45;103170.91;;;-2.57;100.00
71666;BME280;59503;53.486;10.196;2023-04-04T02:23:12;103162.53;;;-2.61;100.00
71666;BME280;59503;53.486;10.196;2023-04-04T02:25:37;103172.13;;;-2.60;100.00
71666;BME280;59503;53.486;10.196;2023-04-04T02:28:03;103171.75;;;-2.63;100.00
71666;BME280;59503;53.486;10.196;2023-04-04T02:30:28;103171.16;;;-2.65;100.00
71666;BME280;59503;53.486;10.196;2023-04-04T02:32:56;103158.69;;;-2.71;100.00
71666;BME280;59503;53.486;10.196;2023-04-04T02:35:23;103162.59;;;-2.74;100.00
71666;BME280;59503;53.486;10.196;2023-04-04T02:37:48;103172.06;;;-2.78;100.00
71666;BME280;59503;53.486;10.196;2023-04-04T02:40:14;103172.09;;;-2.84;100.00
71666;BME280;59503;53.486;10.196;2023-04-04T02:42:43;103160.06;;;-2.93;100.00
71666;BME280;59503;53.486;10.196;2023-04-04T02:45:09;103164.16;;;-2.97;100.00
71666;BME280;59503;53.486;10.196;2023-04-04T02:47:35;103164.41;;;-3.05;100.00
71666;BME280;59503;53.486;10.196;2023-04-04T02:50:02;103179.00;;;-3.14;100.00
71666;BME280;59503;53.486;10.196;2023-04-04T02:52:27;103181.88;;;-3.22;100.00
71666;BME280;59503;53.486;10.196;2023-04-04T02:54:53;103169.84;;;-3.31;100.00
71666;BME280;59503;53.486;10.196;2023-04-04T02:57:19;103171.91;;;-3.33;100.00
71666;BME280;59503;53.486;10.196;2023-04-04T02:59:45;103173.53;;;-3.39;100.00
71666;BME280;59503;53.486;10.196;2023-04-04T03:02:11;103171.94;;;-3.46;100.00
71666;BME280;59503;53.486;10.196;2023-04-04T03:04:36;103179.53;;;-3.50;100.00
71666;BME280;59503;53.486;10.196;2023-04-04T03:07:02;103172.97;;;-3.54;100.00
71666;BME280;59503;53.486;10.196;2023-04-04T03:09:28;103168.50;;;-3.53;100.00
71666;BME280;59503;53.486;10.196;2023-04-04T03:11:53;103174.81;;;-3.54;100.00
71666;BME280;59503;53.486;10.196;2023-04-04T03:14:19;103177.47;;;-3.54;100.00
71666;BME280;59503;53.486;10.196;2023-04-04T03:16:45;103181.38;;;-3.57;100.00
71666;BME280;59503;53.486;10.196;2023-04-04T03:19:14;103187.53;;;-3.56;100.00
71666;BME280;59503;53.486;10.196;2023-04-04T03:21:39;103178.09;;;-3.59;100.00
71666;BME280;59503;53.486;10.196;2023-04-04T03:24:05;103178.50;;;-3.55;100.00
71666;BME280;59503;53.486;10.196;2023-04-04T03:26:30;103171.16;;;-3.60;100.00
71666;BME280;59503;53.486;10.196;2023-04-04T03:28:56;103166.66;;;-3.59;100.00
71666;BME280;59503;53.486;10.196;2023-04-04T03:31:21;103172.75;;;-3.46;100.00
71666;BME280;59503;53.486;10.196;2023-04-04T03:33:47;103174.81;;;-3.41;100.00
71666;BME280;59503;53.486;10.196;2023-04-04T03:36:13;103171.91;;;-3.33;100.00
71666;BME280;59503;53.486;10.196;2023-04-04T03:38:39;103181.91;;;-3.29;100.00
71666;BME280;59503;53.486;10.196;2023-04-04T03:41:05;103178.44;;;-3.29;100.00
71666;BME280;59503;53.486;10.196;2023-04-04T03:43:31;103167.81;;;-3.29;100.00
71666;BME280;59503;53.486;10.196;2023-04-04T03:46:04;103173.50;;;-3.26;100.00
71666;BME280;59503;53.486;10.196;2023-04-04T03:48:30;103165.34;;;-3.31;100.00
71666;BME280;59503;53.486;10.196;2023-04-04T03:50:56;103163.91;;;-3.27;100.00
71666;BME280;59503;53.486;10.196;2023-04-04T03:53:25;103155.09;;;-3.27;100.00
71666;BME280;59503;53.486;10.196;2023-04-04T03:55:54;103146.34;;;-3.34;100.00
71666;BME280;59503;53.486;10.196;2023-04-04T03:58:20;103158.38;;;-3.25;100.00
71666;BME280;59503;53.486;10.196;2023-04-04T04:00:45;103159.63;;;-3.28;100.00
71666;BME280;59503;53.486;10.196;2023-04-04T04:03:11;103154.31;;;-3.34;100.00
71666;BME280;59503;53.486;10.196;2023-04-04T04:05:36;103154.72;;;-3.37;100.00
71666;BME280;59503;53.486;10.196;2023-04-04T04:08:02;103144.31;;;-3.45;100.00
71666;BME280;59503;53.486;10.196;2023-04-04T04:10:27;103144.94;;;-3.43;100.00
71666;BME280;59503;53.486;10.196;2023-04-04T04:12:53;103137.97;;;-3.44;100.00
71666;BME280;59503;53.486;10.196;2023-04-04T04:15:18;103150.25;;;-3.43;100.00
71666;BME280;59503;53.486;10.196;2023-04-04T04:17:44;103147.75;;;-3.32;100.00
71666;BME280;59503;53.486;10.196;2023-04-04T04:20:10;103140.78;;;-3.26;100.00
71666;BME280;59503;53.486;10.196;2023-04-04T04:22:35;103141.75;;;-3.14;100.00
71666;BME280;59503;53.486;10.196;2023-04-04T04:25:02;103146.66;;;-3.11;100.00
71666;BME280;59503;53.486;10.196;2023-04-04T04:27:28;103146.22;;;-3.08;100.00
71666;BME280;59503;53.486;10.196;2023-04-04T04:29:54;103143.56;;;-3.08;100.00
71666;BME280;59503;53.486;10.196;2023-04-04T04:32:20;103147.44;;;-3.04;100.00
71666;BME280;59503;53.486;10.196;2023-04-04T04:34:46;103152.69;;;-2.91;100.00
71666;BME280;59503;53.486;10.196;2023-04-04T04:37:12;103161.84;;;-2.87;100.00
71666;BME280;59503;53.486;10.196;2023-04-04T04:39:37;103161.44;;;-2.84;100.00
71666;BME280;59503;53.486;10.196;2023-04-04T04:42:03;103158.97;;;-2.79;100.00
71666;BME280;59503;53.486;10.196;2023-04-04T04:44:28;103163.63;;;-2.75;100.00
71666;BME280;59503;53.486;10.196;2023-04-04T04:46:54;103164.03;;;-2.71;100.00
71666;BME280;59503;53.486;10.196;2023-04-04T04:49:20;103161.97;;;-2.69;100.00
71666;BME280;59503;53.486;10.196;2023-04-04T04:51:45;103156.81;;;-2.64;100.00
71666;BME280;59503;53.486;10.196;2023-04-04T04:54:11;103156.81;;;-2.64;100.00
71666;BME280;59503;53.486;10.196;2023-04-04T04:56:36;103154.34;;;-2.59;100.00
71666;BME280;59503;53.486;10.196;2023-04-04T04:59:02;103145.94;;;-2.63;100.00
71666;BME280;59503;53.486;10.196;2023-04-04T05:01:28;103153.69;;;-2.55;100.00
71666;BME280;59503;53.486;10.196;2023-04-04T05:03:53;103147.69;;;-2.50;100.00
71666;BME280;59503;53.486;10.196;2023-04-04T05:06:18;103143.97;;;-2.42;100.00
71666;BME280;59503;53.486;10.196;2023-04-04T05:08:44;103143.56;;;-2.46;100.00
71666;BME280;59503;53.486;10.196;2023-04-04T05:11:09;103147.22;;;-2.40;100.00
71666;BME280;59503;53.486;10.196;2023-04-04T05:13:35;103152.34;;;-2.39;100.00
71666;BME280;59503;53.486;10.196;2023-04-04T05:16:01;103148.84;;;-2.39;100.00
71666;BME280;59503;53.486;10.196;2023-04-04T05:18:27;103152.56;;;-2.40;100.00
71666;BME280;59503;53.486;10.196;2023-04-04T05:20:53;103152.78;;;-2.42;100.00
71666;BME280;59503;53.486;10.196;2023-04-04T05:23:19;103151.28;;;-2.38;100.00
71666;BME280;59503;53.486;10.196;2023-04-04T05:25:44;103151.28;;;-2.38;100.00
71666;BME280;59503;53.486;10.196;2023-04-04T05:28:10;103151.91;;;-2.36;100.00
71666;BME280;59503;53.486;10.196;2023-04-04T05:30:35;103154.19;;;-2.39;100.00
71666;BME280;59503;53.486;10.196;2023-04-04T05:33:01;103156.41;;;-2.36;100.00
71666;BME280;59503;53.486;10.196;2023-04-04T05:35:26;103158.84;;;-2.35;100.00
71666;BME280;59503;53.486;10.196;2023-04-04T05:37:52;103166.63;;;-2.33;100.00
71666;BME280;59503;53.486;10.196;2023-04-04T05:40:17;103159.44;;;-2.33;100.00
71666;BME280;59503;53.486;10.196;2023-04-04T05:42:42;103158.91;;;-2.17;100.00
71666;BME280;59503;53.486;10.196;2023-04-04T05:45:09;103166.50;;;-1.96;100.00
71666;BME280;59503;53.486;10.196;2023-04-04T05:47:35;103173.50;;;-1.77;100.00
71666;BME280;59503;53.486;10.196;2023-04-04T05:50:00;103157.22;;;-1.51;100.00
71666;BME280;59503;53.486;10.196;2023-04-04T05:52:26;103150.25;;;-1.34;100.00
71666;BME280;59503;53.486;10.196;2023-04-04T05:54:51;103153.81;;;-1.21;100.00
71666;BME280;59503;53.486;10.196;2023-04-04T05:57:16;103160.25;;;-1.11;100.00
71666;BME280;59503;53.486;10.196;2023-04-04T05:59:42;103148.94;;;-0.95;100.00
71666;BME280;59503;53.486;10.196;2023-04-04T06:02:07;103159.44;;;-0.82;100.00
71666;BME280;59503;53.486;10.196;2023-04-04T06:04:33;103154.25;;;-0.65;100.00
71666;BME280;59503;53.486;10.196;2023-04-04T06:06:58;103156.88;;;-0.47;100.00
71666;BME280;59503;53.486;10.196;2023-04-04T06:09:25;103162.13;;;-0.29;100.00
71666;BME280;59503;53.486;10.196;2023-04-04T06:11:50;103156.91;;;-0.13;100.00
71666;BME280;59503;53.486;10.196;2023-04-04T06:14:15;103151.09;;;0.02;100.00
71666;BME280;59503;53.486;10.196;2023-04-04T06:16:41;103161.91;;;0.19;100.00
71666;BME280;59503;53.486;10.196;2023-04-04T06:19:06;103159.13;;;0.37;100.00
71666;BME280;59503;53.486;10.196;2023-04-04T06:21:31;103157.78;;;0.62;100.00
71666;BME280;59503;53.486;10.196;2023-04-04T06:23:57;103163.78;;;0.81;100.00
71666;BME280;59503;53.486;10.196;2023-04-04T06:26:22;103169.16;;;0.81;100.00
71666;BME280;59503;53.486;10.196;2023-04-04T06:28:48;103168.25;;;1.03;98.83
71666;BME280;59503;53.486;10.196;2023-04-04T06:31:14;103168.06;;;1.21;98.81
71666;BME280;59503;53.486;10.196;2023-04-04T06:33:40;103147.69;;;1.20;96.96
71666;BME280;59503;53.486;10.196;2023-04-04T06:36:05;103165.19;;;1.40;97.30
71666;BME280;59503;53.486;10.196;2023-04-04T06:38:30;103171.44;;;1.45;97.32
71666;BME280;59503;53.486;10.196;2023-04-04T06:40:56;103165.53;;;1.60;97.11
71666;BME280;59503;53.486;10.196;2023-04-04T06:43:22;103157.19;;;1.73;97.10
71666;BME280;59503;53.486;10.196;2023-04-04T06:45:48;103160.53;;;1.80;93.99
71666;BME280;59503;53.486;10.196;2023-04-04T06:48:13;103162.06;;;1.92;93.18
71666;BME280;59503;53.486;10.196;2023-04-04T06:50:39;103162.06;;;1.92;91.37
71666;BME280;59503;53.486;10.196;2023-04-04T06:53:04;103165.28;;;2.11;92.19
71666;BME280;59503;53.486;10.196;2023-04-04T06:55:32;103161.59;;;2.17;90.06
71666;BME280;59503;53.486;10.196;2023-04-04T06:57:57;103160.66;;;2.23;90.00
71666;BME280;59503;53.486;10.196;2023-04-04T07:00:23;103166.72;;;2.35;89.68
71666;BME280;59503;53.486;10.196;2023-04-04T07:02:48;103160.28;;;2.36;89.85
71666;BME280;59503;53.486;10.196;2023-04-04T07:05:14;103170.34;;;2.45;87.44
71666;BME280;59503;53.486;10.196;2023-04-04T07:07:42;103164.94;;;2.62;85.84
71666;BME280;59503;53.486;10.196;2023-04-04T07:10:08;103172.19;;;2.62;85.95
71666;BME280;59503;53.486;10.196;2023-04-04T07:12:33;103170.78;;;2.59;84.34
71666;BME280;59503;53.486;10.196;2023-04-04T07:14:59;103163.56;;;2.81;85.76
71666;BME280;59503;53.486;10.196;2023-04-04T07:17:24;103161.09;;;3.01;85.25
71666;BME280;59503;53.486;10.196;2023-04-04T07:19:49;103161.31;;;3.21;83.22
71666;BME280;59503;53.486;10.196;2023-04-04T07:22:15;103148.63;;;3.43;82.48
71666;BME280;59503;53.486;10.196;2023-04-04T07:24:40;103143.91;;;3.55;79.08
71666;BME280;59503;53.486;10.196;2023-04-04T07:27:06;103153.84;;;3.55;79.98
71666;BME280;59503;53.486;10.196;2023-04-04T07:29:32;103154.91;;;3.86;77.53
71666;BME280;59503;53.486;10.196;2023-04-04T07:31:57;103159.38;;;4.12;76.18
71666;BME280;59503;53.486;10.196;2023-04-04T07:34:23;103162.75;;;4.34;74.98
71666;BME280;59503;53.486;10.196;2023-04-04T07:36:50;103165.31;;;4.60;74.16
71666;BME280;59503;53.486;10.196;2023-04-04T07:39:15;103160.53;;;4.72;71.99
71666;BME280;59503;53.486;10.196;2023-04-04T07:41:41;103149.56;;;4.99;72.17
71666;BME280;59503;53.486;10.196;2023-04-04T07:44:06;103148.03;;;5.43;67.45
71666;BME280;59503;53.486;10.196;2023-04-04T07:46:32;103148.06;;;5.73;65.13
71666;BME280;59503;53.486;10.196;2023-04-04T07:48:57;103145.63;;;5.57;62.26
71666;BME280;59503;53.486;10.196;2023-04-04T07:51:23;103147.00;;;5.74;62.41
71666;BME280;59503;53.486;10.196;2023-04-04T07:53:54;103153.19;;;5.75;63.72
71666;BME280;59503;53.486;10.196;2023-04-04T07:56:19;103148.31;;;5.57;60.68
71666;BME280;59503;53.486;10.196;2023-04-04T07:58:46;103147.28;;;5.88;62.23
71666;BME280;59503;53.486;10.196;2023-04-04T08:01:11;103136.19;;;6.04;61.78
71666;BME280;59503;53.486;10.196;2023-04-04T08:03:37;103135.53;;;6.48;60.28
71666;BME280;59503;53.486;10.196;2023-04-04T08:06:02;103135.06;;;6.94;56.87
71666;BME280;59503;53.486;10.196;2023-04-04T08:08:28;103140.94;;;7.45;54.64
71666;BME280;59503;53.486;10.196;2023-04-04T08:10:54;103136.19;;;6.88;54.31
71666;BME280;59503;53.486;10.196;2023-04-04T08:13:19;103128.16;;;6.68;53.89
71666;BME280;59503;53.486;10.196;2023-04-04T08:15:45;103131.94;;;7.16;54.79
71666;BME280;59503;53.486;10.196;2023-04-04T08:18:11;103137.56;;;7.92;52.15
71666;BME280;59503;53.486;10.196;2023-04-04T08:20:36;103139.94;;;8.27;51.30
71666;BME280;59503;53.486;10.196;2023-04-04T08:23:01;103132.53;;;8.61;49.78
71666;BME280;59503;53.486;10.196;2023-04-04T08:25:27;103130.50;;;8.48;49.87
71666;BME280;59503;53.486;10.196;2023-04-04T08:27:53;103136.84;;;8.38;50.33
71666;BME280;59503;53.486;10.196;2023-04-04T08:30:19;103137.09;;;8.13;51.00
71666;BME280;59503;53.486;10.196;2023-04-04T08:32:44;103138.53;;;8.34;48.63
71666;BME280;59503;53.486;10.196;2023-04-04T08:35:10;103126.41;;;7.70;49.02
71666;BME280;59503;53.486;10.196;2023-04-04T08:37:36;103134.44;;;7.46;49.96
71666;BME280;59503;53.486;10.196;2023-04-04T08:40:03;103129.59;;;7.04;50.16
71666;BME280;59503;53.486;10.196;2023-04-04T08:42:31;103135.41;;;7.26;51.35
71666;BME280;59503;53.486;10.196;2023-04-04T08:44:58;103120.78;;;6.89;51.90
71666;BME280;59503;53.486;10.196;2023-04-04T08:47:27;103125.00;;;7.05;53.31
71666;BME280;59503;53.486;10.196;2023-04-04T08:49:54;103128.44;;;7.54;52.10
71666;BME280;59503;53.486;10.196;2023-04-04T08:52:21;103122.88;;;7.40;51.80
71666;BME280;59503;53.486;10.196;2023-04-04T08:54:49;103118.16;;;7.51;51.56
71666;BME280;59503;53.486;10.196;2023-04-04T08:57:15;103119.06;;;7.41;51.69
71666;BME280;59503;53.486;10.196;2023-04-04T08:59:41;103112.72;;;7.85;48.92
71666;BME280;59503;53.486;10.196;2023-04-04T09:04:36;103126.16;;;8.70;48.21
71666;BME280;59503;53.486;10.196;2023-04-04T09:07:04;103119.03;;;8.56;46.58
71666;BME280;59503;53.486;10.196;2023-04-04T09:09:32;103117.69;;;8.96;47.32
71666;BME280;59503;53.486;10.196;2023-04-04T09:12:01;103130.00;;;8.88;47.01
71666;BME280;59503;53.486;10.196;2023-04-04T09:14:29;103124.97;;;9.19;46.59
71666;BME280;59503;53.486;10.196;2023-04-04T09:16:55;103125.97;;;9.04;46.01
71666;BME280;59503;53.486;10.196;2023-04-04T09:19:21;103124.75;;;9.79;45.12
71666;BME280;59503;53.486;10.196;2023-04-04T09:21:47;103113.69;;;10.08;43.56
71666;BME280;59503;53.486;10.196;2023-04-04T09:24:13;103121.94;;;10.30;42.18
71666;BME280;59503;53.486;10.196;2023-04-04T09:26:49;103115.22;;;10.41;43.34
71666;BME280;59503;53.486;10.196;2023-04-04T09:29:19;103116.16;;;10.86;41.08
71666;BME280;59503;53.486;10.196;2023-04-04T09:31:46;103113.19;;;11.09;41.70
71666;BME280;59503;53.486;10.196;2023-04-04T09:34:17;103112.22;;;11.72;39.56
71666;BME280;59503;53.486;10.196;2023-04-04T09:36:44;103109.63;;;11.67;39.00
71666;BME280;59503;53.486;10.196;2023-04-04T09:39:12;103112.19;;;11.94;37.31
71666;BME280;59503;53.486;10.196;2023-04-04T09:41:40;103103.13;;;12.07;37.36
71666;BME280;59503;53.486;10.196;2023-04-04T09:44:09;103102.31;;;11.54;36.33
71666;BME280;59503;53.486;10.196;2023-04-04T09:46:35;103094.13;;;10.74;38.04
71666;BME280;59503;53.486;10.196;2023-04-04T09:49:01;103094.94;;;10.06;38.56
71666;BME280;59503;53.486;10.196;2023-04-04T09:51:37;103093.59;;;9.77;39.27
71666;BME280;59503;53.486;10.196;2023-04-04T09:54:04;103095.22;;;10.05;40.25
71666;BME280;59503;53.486;10.196;2023-04-04T09:56:34;103083.31;;;10.20;39.90
71666;BME280;59503;53.486;10.196;2023-04-04T09:59:03;103085.81;;;9.70;40.33
71666;BME280;59503;53.486;10.196;2023-04-04T10:01:31;103085.00;;;9.70;40.40
71666;BME280;59503;53.486;10.196;2023-04-04T10:03:57;103088.25;;;9.72;43.13
71666;BME280;59503;53.486;10.196;2023-04-04T10:06:23;103071.00;;;10.09;41.93
71666;BME280;59503;53.486;10.196;2023-04-04T10:08:49;103080.28;;;10.21;41.09
71666;BME280;59503;53.486;10.196;2023-04-04T10:11:30;103071.16;;;9.85;36.69
71666;BME280;59503;53.486;10.196;2023-04-04T10:13:56;103070.59;;;10.15;37.48
71666;BME280;59503;53.486;10.196;2023-04-04T10:16:23;103066.44;;;10.04;37.79
71666;BME280;59503;53.486;10.196;2023-04-04T10:18:48;103059.38;;;10.03;37.76
71666;BME280;59503;53.486;10.196;2023-04-04T10:21:16;103059.84;;;9.64;39.46
71666;BME280;59503;53.486;10.196;2023-04-04T10:23:44;103054.69;;;9.49;38.35
71666;BME280;59503;53.486;10.196;2023-04-04T10:26:10;103058.13;;;8.67;39.94
71666;BME280;59503;53.486;10.196;2023-04-04T10:28:36;103060.63;;;9.01;38.57
71666;BME280;59503;53.486;10.196;2023-04-04T10:33:51;103054.09;;;9.52;37.81
71666;BME280;59503;53.486;10.196;2023-04-04T10:36:21;103055.28;;;9.92;37.26
71666;BME280;59503;53.486;10.196;2023-04-04T10:38:53;103055.91;;;9.57;37.24
71666;BME280;59503;53.486;10.196;2023-04-04T10:41:24;103062.25;;;9.02;35.83
71666;BME280;59503;53.486;10.196;2023-04-04T10:43:51;103051.91;;;9.22;36.91
71666;BME280;59503;53.486;10.196;2023-04-04T10:46:21;103048.03;;;9.10;37.25
71666;BME280;59503;53.486;10.196;2023-04-04T10:48:56;103050.88;;;9.50;36.05
71666;BME280;59503;53.486;10.196;2023-04-04T10:51:23;103028.69;;;9.30;37.19
71666;BME280;59503;53.486;10.196;2023-04-04T10:53:49;103045.22;;;9.15;37.88
71666;BME280;59503;53.486;10.196;2023-04-04T10:56:16;103044.00;;;9.07;38.46
71666;BME280;59503;53.486;10.196;2023-04-04T10:58:43;103050.59;;;9.01;37.06
71666;BME280;59503;53.486;10.196;2023-04-04T11:01:08;103041.97;;;9.31;39.18
71666;BME280;59503;53.486;10.196;2023-04-04T11:12:29;103037.38;;;10.18;34.88
71666;BME280;59503;53.486;10.196;2023-04-04T11:20:22;103027.53;;;10.22;37.16
71666;BME280;59503;53.486;10.196;2023-04-04T11:23:08;103021.06;;;10.04;36.86
71666;BME280;59503;53.486;10.196;2023-04-04T11:25:36;103011.91;;;10.28;39.04
71666;BME280;59503;53.486;10.196;2023-04-04T11:28:12;103016.63;;;10.49;37.08
71666;BME280;59503;53.486;10.196;2023-04-04T11:30:42;103012.09;;;10.04;36.29
71666;BME280;59503;53.486;10.196;2023-04-04T11:33:15;103009.66;;;9.62;37.84
71666;BME280;59503;53.486;10.196;2023-04-04T11:35:50;103008.16;;;9.83;37.68
71666;BME280;59503;53.486;10.196;2023-04-04T11:38:15;103006.75;;;9.72;36.86
71666;BME280;59503;53.486;10.196;2023-04-04T11:40:52;102988.63;;;9.40;36.36
71666;BME280;59503;53.486;10.196;2023-04-04T11:43:19;102999.31;;;9.18;36.71
71666;BME280;59503;53.486;10.196;2023-04-04T11:45:45;102998.41;;;9.23;37.98
71666;BME280;59503;53.486;10.196;2023-04-04T11:48:13;102992.91;;;9.28;38.29
71666;BME280;59503;53.486;10.196;2023-04-04T11:50:40;102990.53;;;9.08;37.92
71666;BME280;59503;53.486;10.196;2023-04-04T11:53:08;102984.75;;;9.28;39.81
71666;BME280;59503;53.486;10.196;2023-04-04T11:55:40;102983.69;;;9.29;37.58
71666;BME280;59503;53.486;10.196;2023-04-04T11:58:11;102977.47;;;9.42;39.41
71666;BME280;59503;53.486;10.196;2023-04-04T12:00:37;102971.84;;;9.06;38.42
71666;BME280;59503;53.486;10.196;2023-04-04T12:03:14;102973.59;;;8.97;37.73
71666;BME280;59503;53.486;10.196;2023-04-04T12:05:42;102966.69;;;9.37;39.23
71666;BME280;59503;53.486;10.196;2023-04-04T12:11:49;102967.50;;;10.05;37.32
71666;BME280;59503;53.486;10.196;2023-04-04T12:14:17;102958.47;;;9.96;34.91
71666;BME280;59503;53.486;10.196;2023-04-04T12:16:44;102964.03;;;9.64;35.54
71666;BME280;59503;53.486;10.196;2023-04-04T12:19:10;102968.34;;;9.65;35.16
71666;BME280;59503;53.486;10.196;2023-04-04T12:21:35;102970.03;;;9.74;36.06
71666;BME280;59503;53.486;10.196;2023-04-04T12:24:01;102965.84;;;9.23;35.78
71666;BME280;59503;53.486;10.196;2023-04-04T12:26:27;102956.63;;;9.24;35.92
71666;BME280;59503;53.486;10.196;2023-04-04T12:28:55;102963.50;;;9.48;34.89
71666;BME280;59503;53.486;10.196;2023-04-04T12:31:23;102962.41;;;9.90;35.99
71666;BME280;59503;53.486;10.196;2023-04-04T12:33:49;102954.59;;;10.38;35.56
71666;BME280;59503;53.486;10.196;2023-04-04T12:36:16;102959.69;;;10.17;32.86
71666;BME280;59503;53.486;10.196;2023-04-04T12:39:03;102951.81;;;10.29;34.08
71666;BME280;59503;53.486;10.196;2023-04-04T12:41:30;102941.91;;;10.69;33.32
71666;BME280;59503;53.486;10.196;2023-04-04T12:44:02;102947.81;;;10.49;33.67
71666;BME280;59503;53.486;10.196;2023-04-04T12:46:34;102936.22;;;11.32;32.46
71666;BME280;59503;53.486;10.196;2023-04-04T12:48:59;102926.47;;;10.78;33.93
71666;BME280;59503;53.486;10.196;2023-04-04T12:51:31;102919.22;;;10.73;34.53
71666;BME280;59503;53.486;10.196;2023-04-04T12:53:58;102930.41;;;11.24;32.86
71666;BME280;59503;53.486;10.196;2023-04-04T12:56:27;102914.31;;;11.06;34.64
71666;BME280;59503;53.486;10.196;2023-04-04T12:59:00;102922.50;;;11.14;34.04
71666;BME280;59503;53.486;10.196;2023-04-04T13:01:28;102914.53;;;10.43;33.20